Time;durP1;ratioP1;P1;durP2;ratioP2;P2;SDS_P1;SDS_P2;PMS_P1;PMS_P2;Temp;Humidity;BMP_temperature;BMP_pressure;BME280_temperature;BME280_humidity;BME280_pressure;Samples;Min_cycle;Max_cycle;Signal;HPM_P1;HPM_P2
2023/11/04 00:01:02;;;;;;;3.95;0.70;;;9.50;99.90;;;;;;4127949;28;20039;-78
2023/11/04 00:03:03;;;;;;;0.80;0.50;;;9.50;99.90;;;;;;4143479;28;20034;-76
2023/11/04 00:05:06;;;;;;;1.63;0.60;;;9.50;99.90;;;;;;4137302;28;20045;-78
2023/11/04 00:07:08;;;;;;;2.63;0.90;;;9.50;99.90;;;;;;4132482;28;20026;-65
2023/11/04 00:09:09;;;;;;;2.20;0.55;;;9.50;99.90;;;;;;4131634;28;20061;-64
2023/11/04 00:11:09;;;;;;;1.67;0.52;;;9.50;99.90;;;;;;4129205;28;20074;-65
2023/11/04 00:13:10;;;;;;;0.68;0.50;;;9.50;99.90;;;;;;4133638;28;20042;-65
2023/11/04 00:15:11;;;;;;;2.22;0.80;;;9.50;99.90;;;;;;4140302;28;20030;-65
2023/11/04 00:17:11;;;;;;;1.45;0.55;;;9.50;99.90;;;;;;4121355;28;20546;-65
2023/11/04 00:19:12;;;;;;;1.20;0.40;;;9.50;99.90;;;;;;4127941;28;20030;-65
2023/11/04 00:21:12;;;;;;;1.20;0.63;;;9.50;99.90;;;;;;4129768;28;20033;-65
2023/11/04 00:23:13;;;;;;;1.85;0.60;;;9.50;99.90;;;;;;4142915;28;20414;-65
2023/11/04 00:25:14;;;;;;;1.23;0.50;;;9.60;99.90;;;;;;4110857;28;20069;-65
2023/11/04 00:27:15;;;;;;;1.27;0.60;;;9.60;99.90;;;;;;4130039;28;20030;-65
2023/11/04 00:29:15;;;;;;;1.02;0.50;;;9.60;99.90;;;;;;4129155;28;20030;-65
2023/11/04 00:31:16;;;;;;;0.77;0.55;;;9.70;99.90;;;;;;4126727;28;20042;-65
2023/11/04 00:33:16;;;;;;;1.08;0.50;;;9.70;99.90;;;;;;4128260;28;20050;-65
2023/11/04 00:35:18;;;;;;;2.28;0.88;;;9.60;99.90;;;;;;4128188;28;20038;-65
2023/11/04 00:37:19;;;;;;;4.07;1.27;;;9.70;99.90;;;;;;4128619;28;20042;-65
2023/11/04 00:39:19;;;;;;;2.35;0.60;;;9.70;99.90;;;;;;4128650;28;20039;-65
2023/11/04 00:41:20;;;;;;;1.25;0.45;;;9.70;99.90;;;;;;4127533;28;20035;-65
2023/11/04 00:43:21;;;;;;;1.20;0.70;;;9.70;99.90;;;;;;4128763;28;20034;-64
2023/11/04 00:45:21;;;;;;;1.67;0.63;;;9.70;99.90;;;;;;4126207;28;20093;-65
2023/11/04 00:47:22;;;;;;;1.55;0.65;;;9.70;99.90;;;;;;4120659;28;20045;-65
2023/11/04 00:49:23;;;;;;;1.67;0.60;;;9.70;99.90;;;;;;4129111;28;20147;-65
2023/11/04 00:51:23;;;;;;;2.05;0.55;;;9.70;99.90;;;;;;4127354;28;20046;-65
2023/11/04 00:53:24;;;;;;;3.45;0.95;;;9.70;99.90;;;;;;4128814;28;20515;-65
2023/11/04 00:55:24;;;;;;;3.22;1.02;;;9.70;99.90;;;;;;4127680;28;20296;-65
2023/11/04 00:57:25;;;;;;;1.13;0.60;;;9.70;99.90;;;;;;4128201;28;20048;-65
2023/11/04 00:59:25;;;;;;;1.05;0.70;;;9.70;99.90;;;;;;4139064;28;20467;-64
2023/11/04 01:01:26;;;;;;;3.67;0.98;;;9.70;99.90;;;;;;4108922;28;20039;-65
2023/11/04 01:03:27;;;;;;;1.58;0.70;;;9.80;99.90;;;;;;4128868;28;20121;-65
2023/11/04 01:05:27;;;;;;;2.10;0.82;;;9.80;99.90;;;;;;4127302;28;20034;-65
2023/11/04 01:07:28;;;;;;;1.25;0.50;;;9.80;99.90;;;;;;4128380;28;20022;-65
2023/11/04 01:09:29;;;;;;;2.03;0.80;;;9.80;99.90;;;;;;4110846;28;20471;-65
2023/11/04 01:11:29;;;;;;;1.52;0.70;;;9.80;99.90;;;;;;4126953;28;20026;-65
2023/11/04 01:13:30;;;;;;;0.95;0.50;;;9.80;99.90;;;;;;4135222;28;20049;-65
2023/11/04 01:15:30;;;;;;;1.50;0.65;;;9.90;99.90;;;;;;4135552;28;20088;-66
2023/11/04 01:17:31;;;;;;;4.40;0.80;;;9.90;99.90;;;;;;4128290;28;20518;-75
2023/11/04 01:19:32;;;;;;;1.90;0.70;;;9.90;99.90;;;;;;4128669;28;20034;-75
2023/11/04 01:21:32;;;;;;;2.00;0.68;;;9.90;99.90;;;;;;4126479;28;20046;-75
2023/11/04 01:23:35;;;;;;;4.85;0.60;;;9.90;99.90;;;;;;4128428;28;20054;-75
2023/11/04 01:25:36;;;;;;;2.63;0.60;;;9.80;99.90;;;;;;4109770;28;20503;-74
2023/11/04 01:27:37;;;;;;;3.00;0.82;;;9.80;99.90;;;;;;4110994;28;20037;-75
2023/11/04 01:29:37;;;;;;;2.30;0.95;;;9.80;99.90;;;;;;4132584;28;20129;-75
2023/11/04 01:31:38;;;;;;;1.65;0.57;;;9.80;99.90;;;;;;4129967;28;20031;-75
2023/11/04 01:33:38;;;;;;;2.03;0.43;;;9.80;99.90;;;;;;4128097;28;20061;-75
2023/11/04 01:35:39;;;;;;;1.15;0.82;;;9.90;99.90;;;;;;4129270;28;20065;-75
2023/11/04 01:37:40;;;;;;;1.13;0.75;;;9.80;99.90;;;;;;4131565;28;20084;-75
2023/11/04 01:39:40;;;;;;;3.05;0.77;;;9.90;99.90;;;;;;4137595;28;20041;-75
2023/11/04 01:41:41;;;;;;;1.55;0.75;;;9.80;99.90;;;;;;4130530;28;20030;-75
2023/11/04 01:43:42;;;;;;;2.75;0.50;;;9.80;99.90;;;;;;4142937;28;20442;-75
2023/11/04 01:45:42;;;;;;;2.35;0.60;;;9.80;99.90;;;;;;4125794;28;20068;-75
2023/11/04 01:47:43;;;;;;;2.00;0.60;;;9.90;99.90;;;;;;4128907;28;20041;-71
2023/11/04 01:49:44;;;;;;;2.67;0.95;;;9.80;99.90;;;;;;4110593;28;20386;-75
2023/11/04 01:51:45;;;;;;;2.83;0.82;;;9.80;99.90;;;;;;4125717;28;20065;-74
2023/11/04 01:53:52;;;;;;;1.38;0.55;;;9.80;99.90;;;;;;4127568;28;20124;-74
2023/11/04 01:55:53;;;;;;;1.10;0.47;;;9.80;99.90;;;;;;4138317;28;20545;-75
2023/11/04 01:57:54;;;;;;;0.75;0.45;;;9.80;99.90;;;;;;4129196;28;20553;-75
2023/11/04 01:59:54;;;;;;;0.98;0.60;;;9.80;99.90;;;;;;4127843;28;20126;-75
2023/11/04 02:01:55;;;;;;;0.82;0.50;;;9.90;99.90;;;;;;4130658;28;20038;-75
2023/11/04 02:03:56;;;;;;;1.83;0.60;;;9.80;99.90;;;;;;4134801;28;20487;-74
2023/11/04 02:05:56;;;;;;;1.95;0.73;;;9.90;99.90;;;;;;4106485;28;20031;-75
2023/11/04 02:07:59;;;;;;;1.20;0.50;;;9.90;99.90;;;;;;4126360;28;20065;-75
2023/11/04 02:09:59;;;;;;;0.45;0.45;;;10.00;99.90;;;;;;4108343;28;20126;-75
2023/11/04 02:12:00;;;;;;;1.02;0.38;;;10.00;99.90;;;;;;4128299;28;20042;-75
2023/11/04 02:14:00;;;;;;;0.95;0.50;;;10.00;99.90;;;;;;4126465;28;20125;-75
2023/11/04 02:16:01;;;;;;;0.93;0.50;;;10.00;99.90;;;;;;4124103;28;20077;-75
2023/11/04 02:18:03;;;;;;;3.20;0.77;;;10.00;99.90;;;;;;4127206;28;20034;-75
2023/11/04 02:20:05;;;;;;;1.10;0.70;;;10.00;99.90;;;;;;4107895;28;20089;-74
2023/11/04 02:22:05;;;;;;;0.90;0.50;;;10.00;99.90;;;;;;4126652;28;20034;-74
2023/11/04 02:24:06;;;;;;;0.95;0.50;;;10.00;99.90;;;;;;4127339;28;20044;-75
2023/11/04 02:26:07;;;;;;;1.05;0.60;;;10.00;99.90;;;;;;4129663;28;20120;-77
2023/11/04 02:28:08;;;;;;;0.50;0.40;;;10.00;99.90;;;;;;4139769;28;20116;-77
2023/11/04 02:30:11;;;;;;;2.60;0.60;;;10.00;99.90;;;;;;4138261;28;20064;-77
2023/11/04 02:32:11;;;;;;;0.57;0.55;;;10.00;99.90;;;;;;4144024;28;20030;-77
2023/11/04 02:34:12;;;;;;;1.65;0.75;;;10.00;99.90;;;;;;4143417;28;20034;-77
2023/11/04 02:36:13;;;;;;;1.70;0.80;;;10.00;99.90;;;;;;4155656;28;20108;-77
2023/11/04 02:38:13;;;;;;;0.80;0.60;;;10.00;99.90;;;;;;4134474;28;20049;-77
2023/11/04 02:40:14;;;;;;;0.77;0.60;;;10.00;99.90;;;;;;4142294;28;20038;-73
2023/11/04 02:42:14;;;;;;;1.35;0.60;;;10.00;99.90;;;;;;4150808;28;20046;-76
2023/11/04 02:44:15;;;;;;;1.52;0.65;;;10.00;99.90;;;;;;4126350;28;20066;-77
2023/11/04 02:46:16;;;;;;;2.58;0.98;;;10.00;99.90;;;;;;4135916;28;20057;-77
2023/11/04 02:48:16;;;;;;;1.67;0.50;;;10.00;99.90;;;;;;4144885;28;20121;-77
2023/11/04 02:50:17;;;;;;;0.95;0.60;;;10.00;99.90;;;;;;4142450;28;20030;-77
2023/11/04 02:52:18;;;;;;;2.50;0.85;;;10.00;99.90;;;;;;4152935;28;20034;-77
2023/11/04 02:54:18;;;;;;;2.10;0.38;;;10.00;99.90;;;;;;4128965;28;20034;-78
2023/11/04 02:56:20;;;;;;;0.93;0.50;;;10.00;99.90;;;;;;4148666;28;20037;-77
2023/11/04 02:58:21;;;;;;;0.52;0.40;;;10.00;99.90;;;;;;4147241;28;20072;-77
2023/11/04 03:00:21;;;;;;;1.35;0.60;;;10.00;99.90;;;;;;4136210;28;21627;-77
2023/11/04 03:02:22;;;;;;;0.65;0.40;;;10.00;99.90;;;;;;4143751;28;20144;-77
2023/11/04 03:04:24;;;;;;;1.52;0.60;;;10.00;99.90;;;;;;4146314;28;20061;-77
2023/11/04 03:06:25;;;;;;;0.85;0.45;;;10.00;99.90;;;;;;4128127;28;20030;-77
2023/11/04 03:08:26;;;;;;;1.67;0.75;;;10.00;99.90;;;;;;4148299;28;20160;-77
2023/11/04 03:10:26;;;;;;;1.75;0.60;;;10.00;99.90;;;;;;4145477;28;20041;-77
2023/11/04 03:12:27;;;;;;;1.17;0.50;;;10.10;99.90;;;;;;4146693;28;20026;-77
2023/11/04 03:14:28;;;;;;;1.52;0.82;;;10.00;99.90;;;;;;4128910;28;20045;-77
2023/11/04 03:16:29;;;;;;;0.50;0.40;;;10.00;99.90;;;;;;4134435;28;20034;-78
2023/11/04 03:18:29;;;;;;;3.50;0.57;;;10.00;99.90;;;;;;4147071;28;20463;-77
2023/11/04 03:20:30;;;;;;;2.38;0.68;;;10.00;99.90;;;;;;4145072;28;20136;-77
2023/11/04 03:22:31;;;;;;;2.55;0.60;;;10.00;99.90;;;;;;4145308;28;20049;-77
2023/11/04 03:24:31;;;;;;;0.80;0.43;;;10.00;99.90;;;;;;4146505;28;20536;-77
2023/11/04 03:26:32;;;;;;;2.97;0.70;;;9.90;99.90;;;;;;4151213;28;20038;-78
2023/11/04 03:28:34;;;;;;;3.13;0.60;;;10.00;99.90;;;;;;4156142;28;20068;-77
2023/11/04 03:30:34;;;;;;;1.88;0.70;;;10.00;99.90;;;;;;4131415;28;20731;-77
2023/11/04 03:32:35;;;;;;;1.23;0.50;;;10.00;99.90;;;;;;4129293;28;20050;-77
2023/11/04 03:34:36;;;;;;;3.45;0.43;;;10.00;99.90;;;;;;4130057;28;20472;-77
2023/11/04 03:36:36;;;;;;;0.73;0.35;;;10.00;99.90;;;;;;4129127;28;20038;-64
2023/11/04 03:38:40;;;;;;;1.00;0.55;;;10.00;99.90;;;;;;4129736;28;20026;-65
2023/11/04 03:40:40;;;;;;;1.35;0.50;;;10.00;99.90;;;;;;4129900;28;20070;-65
2023/11/04 03:42:41;;;;;;;1.17;0.38;;;10.10;99.90;;;;;;4130137;28;20038;-65
2023/11/04 03:44:41;;;;;;;1.40;0.50;;;10.10;99.90;;;;;;4129224;28;20045;-64
2023/11/04 03:46:42;;;;;;;0.77;0.52;;;10.10;99.90;;;;;;4126990;28;20073;-65
2023/11/04 03:48:43;;;;;;;1.27;0.32;;;10.10;99.90;;;;;;4128677;28;20027;-65
2023/11/04 03:50:43;;;;;;;0.85;0.40;;;10.10;99.90;;;;;;4128723;28;20030;-65
2023/11/04 03:52:44;;;;;;;1.83;0.60;;;10.10;99.90;;;;;;4129892;28;20130;-65
2023/11/04 03:54:44;;;;;;;0.93;0.65;;;10.10;99.90;;;;;;4131137;28;20431;-65
2023/11/04 03:56:45;;;;;;;0.63;0.40;;;10.10;99.90;;;;;;4130825;28;20030;-65
2023/11/04 03:58:45;;;;;;;0.57;0.38;;;10.20;99.90;;;;;;4129810;28;20085;-65
2023/11/04 04:00:46;;;;;;;1.58;0.57;;;10.10;99.90;;;;;;4126813;28;20057;-65
2023/11/04 04:02:47;;;;;;;3.35;0.68;;;10.10;99.90;;;;;;4129587;28;20550;-64
2023/11/04 04:04:48;;;;;;;2.67;0.57;;;10.20;99.90;;;;;;4129756;28;20041;-65
2023/11/04 04:06:50;;;;;;;2.45;0.75;;;10.20;99.90;;;;;;4128098;28;20054;-65
2023/11/04 04:08:51;;;;;;;1.17;0.40;;;10.20;99.90;;;;;;4115123;28;20038;-64
2023/11/04 04:10:52;;;;;;;1.30;0.55;;;10.20;99.90;;;;;;4127552;28;20042;-65
2023/11/04 04:12:52;;;;;;;0.50;0.35;;;10.20;99.90;;;;;;4129188;28;20046;-65
2023/11/04 04:14:53;;;;;;;1.48;0.40;;;10.30;99.90;;;;;;4128605;28;20034;-65
2023/11/04 04:16:53;;;;;;;0.65;0.25;;;10.30;99.90;;;;;;4133898;28;20456;-64
2023/11/04 04:18:54;;;;;;;2.33;0.70;;;10.20;99.90;;;;;;4129648;28;20096;-64
2023/11/04 04:20:55;;;;;;;0.55;0.50;;;10.20;99.90;;;;;;4128166;28;20050;-65
2023/11/04 04:22:55;;;;;;;0.88;0.43;;;10.20;99.90;;;;;;4128525;28;20042;-65
2023/11/04 04:24:56;;;;;;;0.40;0.30;;;10.30;99.90;;;;;;4129979;28;20031;-65
2023/11/04 04:26:56;;;;;;;0.75;0.52;;;10.20;99.90;;;;;;4128568;28;20109;-65
2023/11/04 04:28:57;;;;;;;0.82;0.40;;;10.30;99.90;;;;;;4129385;28;20035;-65
2023/11/04 04:30:58;;;;;;;2.88;0.63;;;10.30;99.90;;;;;;4124842;28;20046;-65
2023/11/04 04:32:58;;;;;;;1.17;0.47;;;10.20;99.90;;;;;;4129458;28;20471;-65
2023/11/04 04:34:59;;;;;;;1.65;0.52;;;10.20;99.90;;;;;;4129113;28;20030;-65
2023/11/04 04:37:00;;;;;;;1.17;0.40;;;10.20;99.90;;;;;;4127902;28;20038;-65
2023/11/04 04:39:00;;;;;;;2.15;0.52;;;10.20;99.90;;;;;;4129241;28;20072;-65
2023/11/04 04:41:01;;;;;;;0.57;0.40;;;10.20;99.90;;;;;;4126351;28;20034;-65
2023/11/04 04:43:01;;;;;;;1.45;0.40;;;10.20;99.90;;;;;;4129293;28;20045;-65
2023/11/04 04:45:02;;;;;;;2.30;0.82;;;10.30;99.90;;;;;;4127394;28;20072;-65
2023/11/04 04:47:03;;;;;;;0.90;0.50;;;10.20;99.90;;;;;;4126862;28;20037;-79
2023/11/04 04:49:04;;;;;;;1.45;0.63;;;10.20;99.90;;;;;;4129324;28;20038;-79
2023/11/04 04:51:05;;;;;;;0.88;0.52;;;10.30;99.90;;;;;;4126451;28;20118;-79
2023/11/04 04:53:05;;;;;;;0.85;0.50;;;10.30;99.90;;;;;;4128912;28;20101;-79
2023/11/04 04:55:06;;;;;;;2.97;0.85;;;10.30;99.90;;;;;;4127396;28;20039;-79
2023/11/04 04:57:07;;;;;;;1.08;0.70;;;10.30;99.90;;;;;;4110592;28;20034;-79
2023/11/04 04:59:08;;;;;;;1.35;0.30;;;10.30;99.90;;;;;;4128800;28;20034;-79
2023/11/04 05:01:18;;;;;;;1.42;0.47;;;10.30;99.90;;;;;;4125555;28;20042;-80
2023/11/04 05:03:19;;;;;;;2.47;0.73;;;10.30;99.90;;;;;;4126091;28;20042;-79
2023/11/04 05:05:19;;;;;;;4.00;0.73;;;10.30;99.90;;;;;;4126539;28;20073;-78
2023/11/04 05:07:20;;;;;;;1.17;0.50;;;10.40;99.90;;;;;;4127099;28;20030;-79
2023/11/04 05:09:21;;;;;;;1.67;0.52;;;10.40;99.90;;;;;;4128260;28;20065;-78
2023/11/04 05:11:22;;;;;;;0.80;0.45;;;10.40;99.90;;;;;;4128010;28;20030;-79
2023/11/04 05:13:22;;;;;;;1.98;0.57;;;10.40;99.90;;;;;;4128641;28;20045;-79
2023/11/04 05:15:23;;;;;;;1.38;0.60;;;10.40;99.90;;;;;;4126525;28;20042;-79
2023/11/04 05:17:23;;;;;;;1.08;0.55;;;10.40;99.90;;;;;;4128093;28;20095;-79
2023/11/04 05:19:24;;;;;;;0.63;0.40;;;10.40;99.90;;;;;;4128616;28;20042;-79
2023/11/04 05:21:27;;;;;;;3.03;0.70;;;10.40;99.90;;;;;;4126046;28;20034;-79
2023/11/04 05:23:28;;;;;;;2.88;0.95;;;10.40;99.90;;;;;;4128610;28;20045;-79
2023/11/04 05:25:29;;;;;;;3.10;0.77;;;10.40;99.90;;;;;;4125106;28;20042;-79
2023/11/04 05:27:30;;;;;;;1.60;0.73;;;10.40;99.90;;;;;;4126944;28;20070;-80
2023/11/04 05:29:31;;;;;;;2.78;0.77;;;10.40;99.90;;;;;;4128540;28;20054;-80
2023/11/04 05:31:31;;;;;;;3.33;0.98;;;10.40;99.90;;;;;;4126102;28;20042;-79
2023/11/04 05:33:32;;;;;;;1.30;0.55;;;10.40;99.90;;;;;;4128651;28;20066;-79
2023/11/04 05:35:32;;;;;;;0.85;0.50;;;10.40;99.90;;;;;;4126308;28;20026;-80
2023/11/04 05:37:33;;;;;;;1.42;0.55;;;10.40;99.90;;;;;;4110591;28;20590;-79
2023/11/04 05:39:34;;;;;;;0.68;0.47;;;10.40;99.90;;;;;;4120467;28;20488;-80
2023/11/04 05:41:34;;;;;;;1.23;0.50;;;10.40;99.90;;;;;;4126981;28;20034;-79
2023/11/04 05:43:35;;;;;;;2.17;0.85;;;10.40;99.90;;;;;;4110851;28;20054;-73
2023/11/04 05:45:36;;;;;;;0.82;0.60;;;10.40;99.90;;;;;;4107078;28;20039;-83
2023/11/04 05:47:37;;;;;;;2.83;0.98;;;10.30;99.90;;;;;;4123185;28;20515;-78
2023/11/04 05:49:37;;;;;;;1.80;0.55;;;10.40;99.90;;;;;;4126420;28;20061;-79
2023/11/04 05:51:38;;;;;;;2.38;0.57;;;10.30;99.90;;;;;;4126121;28;20038;-79
2023/11/04 05:53:39;;;;;;;3.53;0.85;;;10.30;99.90;;;;;;4125774;28;20046;-81
2023/11/04 05:55:39;;;;;;;1.48;0.75;;;10.30;99.90;;;;;;4124421;28;20038;-74
2023/11/04 05:57:41;;;;;;;1.80;1.02;;;10.20;99.90;;;;;;4125415;28;20030;-68
2023/11/04 05:59:44;;;;;;;3.80;1.00;;;10.20;99.90;;;;;;4120726;28;20089;-68
2023/11/04 06:01:44;;;;;;;;;;;10.10;99.90;;;;;;4121776;28;20026;-68
2023/11/04 06:03:48;;;;;;;0.70;0.63;;;10.20;99.90;;;;;;4126354;28;19944;-68
2023/11/04 06:05:51;;;;;;;1.92;0.68;;;10.20;99.90;;;;;;4124397;28;20050;-68
2023/11/04 06:07:51;;;;;;;1.30;0.77;;;10.10;99.90;;;;;;4125692;28;20506;-68
2023/11/04 06:09:52;;;;;;;0.98;0.50;;;10.20;99.90;;;;;;4127120;28;20038;-68
2023/11/04 06:11:53;;;;;;;3.78;0.77;;;10.20;99.90;;;;;;4122697;28;20042;-68
2023/11/04 06:13:54;;;;;;;1.23;0.65;;;10.10;99.90;;;;;;4126595;28;20050;-68
2023/11/04 06:15:54;;;;;;;1.58;0.63;;;10.10;99.90;;;;;;4124829;28;20483;-68
2023/11/04 06:17:55;;;;;;;1.77;0.47;;;10.10;99.90;;;;;;4123685;28;20049;-68
2023/11/04 06:19:57;;;;;;;1.60;0.70;;;10.10;99.90;;;;;;4126113;28;20038;-68
2023/11/04 06:21:57;;;;;;;1.97;0.70;;;10.10;99.90;;;;;;4107145;28;20074;-68
2023/11/04 06:23:58;;;;;;;1.65;0.70;;;10.10;99.90;;;;;;4115949;28;20034;-68
2023/11/04 06:25:59;;;;;;;1.45;1.00;;;10.10;99.90;;;;;;4106693;28;20034;-68
2023/11/04 06:27:59;;;;;;;3.30;0.95;;;10.10;99.90;;;;;;4126106;28;20092;-68
2023/11/04 06:30:00;;;;;;;1.67;0.70;;;10.10;99.90;;;;;;4125529;28;20058;-68
2023/11/04 06:32:00;;;;;;;1.83;0.70;;;10.10;99.90;;;;;;4124028;28;20045;-68
2023/11/04 06:34:01;;;;;;;0.95;0.60;;;10.10;99.90;;;;;;4126254;28;20663;-68
2023/11/04 06:36:02;;;;;;;1.77;0.80;;;10.10;99.90;;;;;;4126504;28;20391;-68
2023/11/04 06:38:02;;;;;;;3.47;0.60;;;10.10;99.90;;;;;;4126772;28;20046;-68
2023/11/04 06:40:06;;;;;;;0.80;0.35;;;10.20;99.90;;;;;;4130662;28;20033;-69
2023/11/04 06:42:06;;;;;;;1.60;0.60;;;10.20;99.90;;;;;;4107969;28;20043;-68
2023/11/04 06:44:07;;;;;;;1.92;0.60;;;10.10;99.90;;;;;;4127136;28;20046;-69
2023/11/04 06:46:08;;;;;;;0.80;0.47;;;10.20;99.90;;;;;;4124165;28;20038;-69
2023/11/04 06:48:09;;;;;;;1.13;0.32;;;10.10;99.90;;;;;;4125745;28;20107;-69
2023/11/04 06:50:10;;;;;;;1.27;0.47;;;10.20;99.90;;;;;;4126896;28;20073;-69
2023/11/04 06:52:10;;;;;;;1.77;0.65;;;10.20;99.90;;;;;;4126445;28;20035;-68
2023/11/04 06:54:11;;;;;;;1.98;0.50;;;10.20;99.90;;;;;;4129764;28;20043;-68
2023/11/04 06:56:11;;;;;;;0.90;0.60;;;10.20;99.90;;;;;;4131429;28;20041;-68
2023/11/04 06:58:12;;;;;;;0.77;0.40;;;10.10;99.90;;;;;;4108410;28;20042;-68
2023/11/04 07:00:14;;;;;;;1.08;0.70;;;10.20;99.90;;;;;;4124652;28;20027;-71
2023/11/04 07:02:15;;;;;;;1.25;0.50;;;10.10;99.90;;;;;;4123007;28;20042;-70
2023/11/04 07:04:15;;;;;;;0.90;0.70;;;10.10;99.90;;;;;;4115390;28;20134;-70
2023/11/04 07:06:17;;;;;;;0.93;0.40;;;10.10;99.90;;;;;;4109336;28;20521;-73
2023/11/04 07:08:18;;;;;;;1.40;0.73;;;10.10;99.90;;;;;;4126143;28;20047;-73
2023/11/04 07:10:18;;;;;;;0.80;0.50;;;10.00;99.90;;;;;;4107797;28;20046;-73
2023/11/04 07:12:19;;;;;;;1.40;0.57;;;10.00;99.90;;;;;;4125717;28;20038;-73
2023/11/04 07:14:20;;;;;;;0.93;0.57;;;10.00;99.90;;;;;;4124125;28;20057;-73
2023/11/04 07:16:20;;;;;;;1.25;0.43;;;10.10;99.90;;;;;;4124084;28;20045;-67
2023/11/04 07:18:21;;;;;;;1.83;0.60;;;10.10;99.90;;;;;;4125808;28;20045;-67
2023/11/04 07:20:22;;;;;;;1.08;0.47;;;10.10;99.90;;;;;;4123759;28;20046;-68
2023/11/04 07:22:24;;;;;;;0.95;0.52;;;10.10;99.90;;;;;;4107744;28;20034;-67
2023/11/04 07:24:24;;;;;;;1.10;0.60;;;10.00;99.90;;;;;;4124659;28;20039;-68
2023/11/04 07:26:25;;;;;;;0.55;0.55;;;10.00;99.90;;;;;;4128542;28;20514;-68
2023/11/04 07:28:34;;;;;;;2.70;0.45;;;10.00;99.90;;;;;;4104803;28;20034;-67
2023/11/04 07:30:36;;;;;;;1.83;0.80;;;10.00;99.90;;;;;;4133635;28;20422;-67
2023/11/04 07:32:37;;;;;;;1.60;0.50;;;10.10;99.90;;;;;;4136611;28;20037;-70
2023/11/04 07:34:40;;;;;;;1.73;0.60;;;10.10;99.90;;;;;;4138300;28;20042;-68
2023/11/04 07:36:40;;;;;;;4.35;0.65;;;10.10;99.90;;;;;;4141533;28;20305;-68
2023/11/04 07:38:41;;;;;;;1.83;0.80;;;10.00;99.90;;;;;;4138797;28;21131;-68
2023/11/04 07:40:42;;;;;;;0.82;0.52;;;10.00;99.90;;;;;;4133824;28;20052;-68
2023/11/04 07:42:43;;;;;;;0.55;0.43;;;10.00;99.90;;;;;;4139672;28;20037;-67
2023/11/04 07:44:44;;;;;;;2.00;0.90;;;10.10;99.90;;;;;;4143032;28;20034;-67
2023/11/04 07:46:45;;;;;;;0.88;0.40;;;10.10;99.90;;;;;;4139554;28;20045;-67
2023/11/04 07:48:45;;;;;;;0.43;0.43;;;10.00;99.90;;;;;;4142091;28;20034;-67
2023/11/04 07:50:46;;;;;;;1.30;0.60;;;10.00;99.90;;;;;;4139505;28;20042;-68
2023/11/04 07:52:47;;;;;;;0.60;0.50;;;10.10;99.90;;;;;;4145505;28;20382;-68
2023/11/04 07:54:47;;;;;;;2.33;0.50;;;10.10;99.90;;;;;;4141823;28;20038;-67
2023/11/04 07:56:48;;;;;;;1.73;0.57;;;10.20;99.90;;;;;;4142002;28;20045;-68
2023/11/04 07:58:48;;;;;;;1.05;0.45;;;10.20;99.90;;;;;;4143514;28;20042;-69
2023/11/04 08:00:49;;;;;;;0.60;0.60;;;10.20;99.90;;;;;;4143082;28;20042;-68
2023/11/04 08:02:50;;;;;;;0.50;0.50;;;10.20;99.90;;;;;;4141469;28;20466;-68
2023/11/04 08:04:51;;;;;;;1.38;0.80;;;10.20;99.90;;;;;;4143132;28;20037;-68
2023/11/04 08:06:51;;;;;;;1.33;0.68;;;10.20;99.90;;;;;;4143773;28;20033;-68
2023/11/04 08:08:52;;;;;;;1.25;0.60;;;10.30;99.90;;;;;;4140654;28;20038;-67
2023/11/04 08:10:52;;;;;;;0.50;0.50;;;10.30;99.90;;;;;;4136553;28;20454;-68
2023/11/04 08:12:53;;;;;;;1.15;0.77;;;10.30;99.90;;;;;;4141071;28;20057;-68
2023/11/04 08:14:54;;;;;;;2.00;0.70;;;10.30;99.90;;;;;;4142538;28;20044;-68
2023/11/04 08:16:55;;;;;;;1.98;0.93;;;10.40;99.90;;;;;;4140965;28;20103;-68
2023/11/04 08:18:56;;;;;;;1.13;0.60;;;10.40;99.90;;;;;;4143297;28;20050;-67
2023/11/04 08:20:57;;;;;;;1.30;0.88;;;10.40;99.90;;;;;;4141976;28;20493;-68
2023/11/04 08:22:57;;;;;;;1.80;1.17;;;10.40;99.90;;;;;;4140648;28;20041;-68
2023/11/04 08:24:58;;;;;;;2.47;1.20;;;10.50;99.90;;;;;;4138751;28;20383;-68
2023/11/04 08:26:58;;;;;;;2.22;1.13;;;10.50;99.90;;;;;;4139630;28;20045;-78
2023/11/04 08:28:59;;;;;;;1.70;0.93;;;10.50;99.90;;;;;;4140640;28;20037;-77
2023/11/04 08:31:00;;;;;;;2.08;1.10;;;10.50;99.90;;;;;;4123170;28;20488;-78
2023/11/04 08:33:01;;;;;;;1.85;0.98;;;10.50;99.90;;;;;;4120284;28;20143;-79
2023/11/04 08:35:02;;;;;;;1.17;0.93;;;10.60;99.90;;;;;;4123512;28;20026;-79
2023/11/04 08:37:02;;;;;;;2.92;1.25;;;10.60;99.90;;;;;;4122757;28;20034;-77
2023/11/04 08:39:03;;;;;;;2.17;0.90;;;10.60;99.90;;;;;;4121744;28;20414;-79
2023/11/04 08:41:04;;;;;;;1.70;0.95;;;10.60;99.90;;;;;;4122933;28;20049;-78
2023/11/04 08:43:05;;;;;;;2.70;1.15;;;10.70;99.90;;;;;;4124490;28;20034;-78
2023/11/04 08:45:11;;;;;;;2.03;1.00;;;10.70;99.90;;;;;;4123486;28;20035;-77
2023/11/04 08:47:11;;;;;;;1.75;1.15;;;10.70;99.90;;;;;;4124316;28;20057;-78
2023/11/04 08:49:12;;;;;;;4.40;1.00;;;10.70;99.90;;;;;;4124641;28;20038;-79
2023/11/04 08:51:12;;;;;;;4.60;1.10;;;10.70;99.90;;;;;;4121658;28;20035;-78
2023/11/04 08:53:13;;;;;;;2.72;1.15;;;10.70;99.90;;;;;;4122271;28;20042;-78
2023/11/04 08:55:14;;;;;;;2.17;1.60;;;10.60;99.90;;;;;;4122553;28;20039;-77
2023/11/04 08:57:14;;;;;;;4.85;2.05;;;10.50;99.90;;;;;;4123260;28;20038;-77
2023/11/04 08:59:15;;;;;;;2.90;2.00;;;10.50;99.90;;;;;;4124184;28;20038;-78
2023/11/04 09:01:16;;;;;;;3.08;1.80;;;10.50;99.90;;;;;;4103068;28;20042;-77
2023/11/04 09:03:17;;;;;;;3.60;1.90;;;10.50;99.90;;;;;;4119724;28;20132;-79
2023/11/04 09:05:18;;;;;;;4.50;1.75;;;10.50;99.90;;;;;;4123082;28;20101;-78
2023/11/04 09:07:18;;;;;;;2.72;1.70;;;10.50;99.90;;;;;;4124647;28;20479;-77
2023/11/04 09:09:21;;;;;;;3.38;1.60;;;10.60;99.90;;;;;;4122810;28;20042;-78
2023/11/04 09:11:22;;;;;;;2.83;1.67;;;10.60;99.90;;;;;;4098665;28;20444;-77
2023/11/04 09:13:23;;;;;;;3.95;1.77;;;10.60;99.90;;;;;;4124268;28;20101;-78
2023/11/04 09:15:23;;;;;;;2.55;1.58;;;10.70;99.90;;;;;;4106593;28;20490;-77
2023/11/04 09:17:24;;;;;;;2.40;1.63;;;10.70;99.90;;;;;;4122539;28;20046;-78
2023/11/04 09:19:24;;;;;;;3.75;1.55;;;10.80;99.90;;;;;;4123498;28;20042;-77
2023/11/04 09:21:26;;;;;;;5.45;1.90;;;10.80;99.90;;;;;;4124018;28;20058;-78
2023/11/04 09:23:27;;;;;;;2.07;1.30;;;10.90;99.90;;;;;;4122031;28;20070;-78
2023/11/04 09:25:27;;;;;;;2.42;1.50;;;10.90;99.90;;;;;;4086665;28;20724;-78
2023/11/04 09:27:29;;;;;;;3.33;1.70;;;10.90;99.90;;;;;;4106395;28;20121;-78
2023/11/04 09:29:29;;;;;;;4.57;1.95;;;10.90;99.90;;;;;;4127015;28;20054;-77
2023/11/04 09:31:30;;;;;;;2.88;1.48;;;11.00;99.90;;;;;;4146721;28;20038;-77
2023/11/04 09:33:33;;;;;;;2.15;1.63;;;11.00;99.90;;;;;;4143480;28;20450;-77
2023/11/04 09:35:33;;;;;;;3.00;1.80;;;11.00;99.90;;;;;;4146959;28;20025;-67
2023/11/04 09:37:35;;;;;;;3.72;1.50;;;11.00;99.90;;;;;;4143459;28;20061;-71
2023/11/04 09:39:36;;;;;;;4.20;1.30;;;11.10;99.90;;;;;;4144930;28;20033;-71
2023/11/04 09:41:36;;;;;;;3.70;1.20;;;11.10;99.90;;;;;;4140072;28;20125;-71
2023/11/04 09:43:37;;;;;;;2.50;1.60;;;11.10;99.90;;;;;;4148313;28;20042;-72
2023/11/04 09:45:38;;;;;;;2.88;1.25;;;11.20;99.90;;;;;;4144289;28;20049;-72
2023/11/04 09:47:39;;;;;;;3.80;1.15;;;11.10;99.90;;;;;;4146673;28;20041;-72
2023/11/04 09:49:39;;;;;;;1.95;1.00;;;11.20;99.90;;;;;;4160059;28;20034;-71
2023/11/04 09:51:41;;;;;;;1.75;0.93;;;11.30;99.90;;;;;;4143659;28;20382;-72
2023/11/04 09:53:53;;;;;;;1.60;1.00;;;11.30;99.90;;;;;;4145605;28;20050;-71
2023/11/04 09:55:54;;;;;;;1.80;1.10;;;11.40;99.90;;;;;;4141769;28;20042;-72
2023/11/04 09:57:55;;;;;;;2.88;1.13;;;11.40;99.90;;;;;;4145016;28;20034;-72
2023/11/04 09:59:56;;;;;;;2.05;0.98;;;11.50;99.90;;;;;;4144564;28;20034;-71
2023/11/04 10:01:56;;;;;;;1.85;0.82;;;11.60;99.90;;;;;;4137229;28;20036;-71
2023/11/04 10:03:57;;;;;;;1.67;0.65;;;11.70;99.90;;;;;;4144540;28;20038;-71
2023/11/04 10:05:58;;;;;;;1.90;0.77;;;11.60;99.90;;;;;;4138367;28;20026;-71
2023/11/04 10:07:58;;;;;;;1.40;0.70;;;11.70;99.90;;;;;;4143544;28;20041;-72
2023/11/04 10:09:59;;;;;;;4.10;0.82;;;11.70;99.90;;;;;;4148378;28;20457;-71
2023/11/04 10:12:01;;;;;;;2.45;1.08;;;11.80;99.90;;;;;;4141918;28;20038;-72
2023/11/04 10:14:02;;;;;;;0.93;0.70;;;11.80;99.90;;;;;;4142589;28;20083;-72
2023/11/04 10:16:03;;;;;;;3.50;0.82;;;11.80;99.90;;;;;;4139200;28;20487;-72
2023/11/04 10:18:04;;;;;;;3.25;1.20;;;11.80;99.90;;;;;;4140639;28;20065;-72
2023/11/04 10:20:11;;;;;;;0.93;0.70;;;11.80;99.90;;;;;;4141256;28;20030;-73
2023/11/04 10:22:12;;;;;;;2.40;0.93;;;11.90;99.90;;;;;;4140783;28;20121;-72
2023/11/04 10:24:13;;;;;;;1.80;0.65;;;11.80;99.90;;;;;;4139411;28;20042;-72
2023/11/04 10:26:15;;;;;;;1.98;0.75;;;11.90;99.90;;;;;;4138294;28;20037;-72
2023/11/04 10:28:18;;;;;;;4.72;0.70;;;11.90;99.90;;;;;;4139784;28;20038;-72
2023/11/04 10:30:19;;;;;;;2.00;0.70;;;11.90;99.90;;;;;;4135284;28;20061;-72